Time;durP1;ratioP1;P1;durP2;ratioP2;P2;SDS_P1;SDS_P2;PMS_P1;PMS_P2;Temp;Humidity;BMP_temperature;BMP_pressure;BME280_temperature;BME280_humidity;BME280_pressure;Samples;Min_cycle;Max_cycle;Signal;HPM_P1;HPM_P2
2022/12/05 00:01:34;;;;;;;30.90;20.75;;;5.20;99.90;;;;;;5093271;28;20050;-77
2022/12/05 00:04:02;;;;;;;30.98;20.30;;;5.20;99.90;;;;;;5094656;28;20139;-77
2022/12/05 00:06:30;;;;;;;28.70;19.23;;;5.10;99.90;;;;;;5094156;28;20051;-77
2022/12/05 00:08:56;;;;;;;30.83;19.50;;;5.20;99.90;;;;;;5094393;28;20052;-76
2022/12/05 00:11:28;;;;;;;30.98;20.27;;;5.20;99.90;;;;;;5093155;28;20452;-77
2022/12/05 00:13:55;;;;;;;30.45;19.60;;;5.20;99.90;;;;;;5093183;28;20391;-76
2022/12/05 00:16:23;;;;;;;28.80;19.75;;;5.20;99.90;;;;;;5094383;28;20040;-76
2022/12/05 00:18:49;;;;;;;29.42;18.80;;;5.20;99.90;;;;;;5075987;28;20070;-76
2022/12/05 00:21:23;;;;;;;27.00;19.52;;;5.20;99.90;;;;;;5094150;28;20051;-76
2022/12/05 00:23:51;;;;;;;29.67;20.27;;;5.20;99.90;;;;;;5093887;28;20044;-76
2022/12/05 00:26:17;;;;;;;29.25;19.65;;;5.20;99.90;;;;;;5094030;28;20130;-77
2022/12/05 00:28:43;;;;;;;29.95;19.05;;;5.20;99.90;;;;;;5093703;28;20044;-77
2022/12/05 00:31:11;;;;;;;29.77;19.20;;;5.30;99.90;;;;;;5093948;28;20044;-77
2022/12/05 00:33:38;;;;;;;27.10;18.55;;;5.30;99.90;;;;;;5092410;28;20358;-76
2022/12/05 00:36:06;;;;;;;27.45;18.90;;;5.20;99.90;;;;;;5093042;28;20365;-77
2022/12/05 00:38:32;;;;;;;29.38;18.52;;;5.20;99.90;;;;;;5093013;28;20044;-76
2022/12/05 00:41:08;;;;;;;27.47;18.97;;;5.20;99.90;;;;;;5093804;28;20480;-76
2022/12/05 00:43:35;;;;;;;28.13;18.30;;;5.20;99.90;;;;;;5093457;28;20087;-76
2022/12/05 00:46:06;;;;;;;25.17;17.83;;;5.30;99.90;;;;;;5093683;28;20044;-76
2022/12/05 00:48:33;;;;;;;25.27;18.67;;;5.30;99.90;;;;;;5093476;28;20117;-76
2022/12/05 00:51:01;;;;;;;28.33;18.42;;;5.20;99.90;;;;;;5093263;28;20526;-77
2022/12/05 00:53:27;;;;;;;27.80;18.58;;;5.20;99.90;;;;;;5092297;28;20093;-76
2022/12/05 00:55:53;;;;;;;28.90;18.37;;;5.20;99.90;;;;;;5093044;28;20056;-76
2022/12/05 00:58:18;;;;;;;27.90;18.30;;;5.30;99.90;;;;;;5093613;28;20047;-76
2022/12/05 01:00:44;;;;;;;27.20;18.67;;;5.20;99.90;;;;;;5075433;28;20132;-76
2022/12/05 01:03:10;;;;;;;26.47;19.00;;;5.20;99.90;;;;;;5092183;28;20122;-76
2022/12/05 01:05:35;;;;;;;26.10;18.23;;;5.30;99.90;;;;;;5093343;28;20047;-76
2022/12/05 01:08:01;;;;;;;29.03;19.47;;;5.40;99.90;;;;;;5092131;28;20104;-77
2022/12/05 01:10:27;;;;;;;29.20;19.60;;;5.40;99.90;;;;;;5092383;28;20048;-76
2022/12/05 01:12:52;;;;;;;26.27;18.97;;;5.40;99.90;;;;;;5092995;28;20547;-76
2022/12/05 01:15:18;;;;;;;29.57;19.83;;;5.40;99.90;;;;;;5075434;28;20131;-76
2022/12/05 01:17:44;;;;;;;30.70;20.07;;;5.40;99.90;;;;;;5093279;28;20044;-77
2022/12/05 01:20:10;;;;;;;29.93;21.07;;;5.40;99.90;;;;;;5092890;28;20059;-76
2022/12/05 01:22:35;;;;;;;29.40;21.37;;;5.50;99.90;;;;;;5092063;28;20087;-77
2022/12/05 01:25:01;;;;;;;32.77;21.17;;;5.50;99.90;;;;;;5093144;28;20285;-76
2022/12/05 01:27:27;;;;;;;34.13;21.87;;;5.60;99.90;;;;;;5093169;28;20094;-76
2022/12/05 01:29:53;;;;;;;31.03;20.83;;;5.50;99.90;;;;;;5092819;28;20126;-76
2022/12/05 01:32:19;;;;;;;32.43;21.10;;;5.50;99.90;;;;;;5093093;28;20050;-76
2022/12/05 01:34:44;;;;;;;34.13;20.90;;;5.50;99.90;;;;;;5092723;28;20089;-77
2022/12/05 01:37:10;;;;;;;35.63;22.17;;;5.50;99.90;;;;;;5093063;28;20048;-77
2022/12/05 01:39:36;;;;;;;32.83;22.23;;;5.50;99.90;;;;;;5092903;28;20541;-76
2022/12/05 01:42:04;;;;;;;32.27;21.93;;;5.50;99.90;;;;;;5093098;28;20050;-76
2022/12/05 01:44:30;;;;;;;34.17;22.35;;;5.50;99.90;;;;;;5093064;28;20044;-76
2022/12/05 01:46:56;;;;;;;34.10;21.17;;;5.50;99.90;;;;;;5092720;28;20056;-76
2022/12/05 01:49:35;;;;;;;34.30;21.90;;;5.50;99.90;;;;;;5095548;28;20249;-77
2022/12/05 01:52:06;;;;;;;32.55;20.48;;;5.50;99.90;;;;;;5096761;28;20282;-77
2022/12/05 01:54:35;;;;;;;31.95;21.17;;;5.50;99.90;;;;;;5097096;28;20043;-76
2022/12/05 01:57:07;;;;;;;29.55;20.65;;;5.50;99.90;;;;;;5095477;28;20052;-76
2022/12/05 01:59:37;;;;;;;29.42;19.73;;;5.50;99.90;;;;;;5097088;28;20044;-76
2022/12/05 02:02:04;;;;;;;31.90;21.10;;;5.60;99.90;;;;;;5096699;28;20036;-76
2022/12/05 02:04:31;;;;;;;28.35;18.90;;;5.60;99.90;;;;;;5096840;28;20437;-77
2022/12/05 02:06:56;;;;;;;30.42;19.05;;;5.60;99.90;;;;;;5095434;28;20522;-77
2022/12/05 02:09:22;;;;;;;29.03;19.23;;;5.60;99.90;;;;;;5096790;28;20068;-77
2022/12/05 02:11:56;;;;;;;29.20;18.57;;;5.60;99.90;;;;;;5096514;28;20044;-77
2022/12/05 02:14:44;;;;;;;27.75;18.20;;;5.60;99.90;;;;;;5096669;28;20294;-77
2022/12/05 02:17:34;;;;;;;27.08;17.23;;;5.60;99.90;;;;;;5096671;28;20399;-76
2022/12/05 02:20:24;;;;;;;28.35;18.05;;;5.60;99.90;;;;;;5095408;28;20044;-77
2022/12/05 02:22:53;;;;;;;23.85;16.80;;;5.60;99.90;;;;;;5096473;28;20068;-77
2022/12/05 02:25:21;;;;;;;26.63;16.20;;;5.60;99.90;;;;;;5096387;28;20051;-76
2022/12/05 02:28:07;;;;;;;27.35;17.83;;;5.60;99.90;;;;;;5095746;28;20538;-77
2022/12/05 02:30:47;;;;;;;23.35;16.15;;;5.70;99.90;;;;;;5096363;28;20048;-77
2022/12/05 02:33:20;;;;;;;24.75;16.70;;;5.70;99.90;;;;;;5096163;28;20055;-76
2022/12/05 02:35:49;;;;;;;24.30;16.23;;;5.70;99.90;;;;;;5095979;28;20048;-76
2022/12/05 02:38:24;;;;;;;22.17;16.10;;;5.70;99.90;;;;;;5095108;28;20055;-77
2022/12/05 02:41:08;;;;;;;;;;;5.70;99.90;;;;;;5096329;28;20044;-77
2022/12/05 02:43:59;;;;;;;21.88;14.50;;;5.70;99.90;;;;;;5096132;28;20007;-77
2022/12/05 02:46:27;;;;;;;19.92;14.23;;;5.70;99.90;;;;;;5096000;28;20518;-77
2022/12/05 02:49:05;;;;;;;19.58;13.02;;;5.70;99.90;;;;;;5094667;28;20055;-77
2022/12/05 02:51:35;;;;;;;20.70;13.63;;;5.80;99.90;;;;;;5095893;28;20079;-76
2022/12/05 02:54:06;;;;;;;20.10;13.18;;;5.80;99.90;;;;;;5095484;28;20048;-77
2022/12/05 02:56:34;;;;;;;18.15;12.25;;;5.80;99.90;;;;;;5095767;28;20090;-76
2022/12/05 02:59:00;;;;;;;16.65;11.07;;;5.80;99.90;;;;;;5095363;28;20135;-77
2022/12/05 03:01:30;;;;;;;17.83;11.30;;;5.80;99.90;;;;;;5094940;28;20052;-77
2022/12/05 03:03:58;;;;;;;15.25;10.73;;;5.80;99.90;;;;;;5094109;28;20089;-77
2022/12/05 03:06:47;;;;;;;14.52;10.48;;;5.80;99.90;;;;;;5095585;28;20052;-77
2022/12/05 03:09:21;;;;;;;15.05;10.50;;;5.90;99.90;;;;;;5095859;28;20044;-76
2022/12/05 03:11:52;;;;;;;13.85;9.73;;;5.90;99.90;;;;;;5095303;28;20123;-76
2022/12/05 03:14:29;;;;;;;13.93;10.98;;;5.90;99.90;;;;;;5095456;28;20124;-76
2022/12/05 03:17:00;;;;;;;15.10;9.73;;;6.00;99.90;;;;;;5095187;28;20067;-77
2022/12/05 03:19:57;;;;;;;13.88;9.77;;;6.00;99.90;;;;;;5095595;28;20048;-76
2022/12/05 03:22:30;;;;;;;;;;;5.90;99.90;;;;;;5095889;28;20130;-76
2022/12/05 03:24:57;;;;;;;12.70;9.18;;;5.90;99.90;;;;;;5095084;28;19920;-77
2022/12/05 03:27:45;;;;;;;13.25;9.57;;;5.90;99.90;;;;;;5095203;28;20056;-77
2022/12/05 03:30:15;;;;;;;14.23;9.80;;;5.90;99.90;;;;;;5094950;28;20243;-76
2022/12/05 03:32:50;;;;;;;15.23;9.13;;;5.90;99.90;;;;;;5094236;28;20388;-77
2022/12/05 03:35:47;;;;;;;14.90;9.23;;;5.90;99.90;;;;;;5095054;28;20043;-77
2022/12/05 03:38:19;;;;;;;13.13;8.80;;;6.00;99.90;;;;;;5092956;28;20055;-77
2022/12/05 03:40:59;;;;;;;14.35;9.00;;;6.00;99.90;;;;;;5094218;28;20109;-76
2022/12/05 03:43:44;;;;;;;11.52;8.32;;;5.90;99.90;;;;;;5094942;28;20468;-76
2022/12/05 03:46:22;;;;;;;12.63;9.18;;;5.90;99.90;;;;;;5094668;28;20047;-77
2022/12/05 03:49:06;;;;;;;13.25;8.07;;;6.00;99.90;;;;;;5094835;28;20048;-77
2022/12/05 03:51:40;;;;;;;15.77;8.88;;;5.90;99.90;;;;;;5095071;28;20059;-77
2022/12/05 03:54:17;;;;;;;11.18;7.53;;;5.90;99.90;;;;;;5094390;28;20127;-77
2022/12/05 03:56:50;;;;;;;15.52;8.48;;;6.00;99.90;;;;;;5094727;28;20051;-77
2022/12/05 03:59:33;;;;;;;13.25;8.40;;;6.00;99.90;;;;;;5093387;28;20135;-76
2022/12/05 04:02:05;;;;;;;11.00;8.18;;;5.90;99.90;;;;;;5094471;28;20078;-77
2022/12/05 04:04:37;;;;;;;13.20;7.85;;;5.80;99.90;;;;;;5094670;28;20040;-76
2022/12/05 04:07:05;;;;;;;11.77;7.82;;;5.80;99.90;;;;;;5094244;28;20127;-77
2022/12/05 04:09:40;;;;;;;12.25;7.85;;;5.80;99.90;;;;;;5094388;28;20044;-76
2022/12/05 04:12:13;;;;;;;13.40;7.95;;;5.80;99.90;;;;;;5093092;28;20143;-76
2022/12/05 04:14:43;;;;;;;12.13;7.68;;;5.80;99.90;;;;;;5094505;28;20379;-76
2022/12/05 04:17:30;;;;;;;12.32;8.27;;;5.90;99.90;;;;;;5094022;28;20463;-77
2022/12/05 04:22:56;;;;;;;13.20;7.90;;;5.80;99.90;;;;;;5093925;28;20044;-77
2022/12/05 04:25:33;;;;;;;11.90;8.10;;;5.90;99.90;;;;;;5094073;28;20059;-77
2022/12/05 04:28:03;;;;;;;13.63;8.02;;;5.80;99.90;;;;;;5093852;28;20044;-77
2022/12/05 04:31:18;;;;;;;11.40;8.18;;;5.80;99.90;;;;;;5093935;28;20131;-77
2022/12/05 04:33:57;;;;;;;14.38;8.45;;;5.80;99.90;;;;;;5094682;28;20051;-76
2022/12/05 04:36:41;;;;;;;16.77;8.75;;;5.80;99.90;;;;;;5094234;28;20071;-77
2022/12/05 04:39:38;;;;;;;15.45;8.35;;;5.80;99.90;;;;;;5093520;28;20048;-78
2022/12/05 04:42:09;;;;;;;12.90;8.45;;;5.80;99.90;;;;;;5094824;28;20064;-77
2022/12/05 04:44:43;;;;;;;13.82;8.38;;;5.90;99.90;;;;;;5093779;28;20069;-76
2022/12/05 04:47:13;;;;;;;13.38;9.25;;;5.80;99.90;;;;;;5093659;28;20047;-77
2022/12/05 04:49:41;;;;;;;13.82;9.40;;;5.80;99.90;;;;;;5093751;28;20047;-77
2022/12/05 04:52:10;;;;;;;14.13;9.15;;;5.70;99.90;;;;;;5093343;28;20086;-77
2022/12/05 04:55:07;;;;;;;15.27;9.15;;;5.80;99.90;;;;;;5093570;28;20080;-77
2022/12/05 04:58:02;;;;;;;15.38;10.30;;;5.90;99.90;;;;;;5108779;28;20081;-76
2022/12/05 05:00:30;;;;;;;13.65;9.65;;;5.80;99.90;;;;;;5089279;28;20056;-76
2022/12/05 05:03:15;;;;;;;15.32;8.85;;;5.80;99.90;;;;;;5093519;28;20040;-76
2022/12/05 05:05:46;;;;;;;15.98;10.45;;;5.80;99.90;;;;;;5092758;28;20358;-76
2022/12/05 05:08:19;;;;;;;12.60;8.90;;;5.90;99.90;;;;;;5093183;28;20090;-76
2022/12/05 05:11:02;;;;;;;14.70;9.90;;;5.80;99.90;;;;;;5093414;28;20044;-76
2022/12/05 05:13:28;;;;;;;14.50;9.00;;;5.80;99.90;;;;;;5093694;28;20089;-76
2022/12/05 05:15:54;;;;;;;15.23;10.13;;;5.80;99.90;;;;;;5093236;28;20040;-76
2022/12/05 05:18:19;;;;;;;13.87;8.93;;;5.90;99.90;;;;;;5075159;28;20052;-76
2022/12/05 05:20:45;;;;;;;15.37;9.70;;;5.90;99.90;;;;;;5092896;28;20048;-76
2022/12/05 05:23:10;;;;;;;13.10;8.90;;;5.90;99.90;;;;;;5074891;28;20070;-76
2022/12/05 05:25:36;;;;;;;15.97;9.83;;;5.90;99.90;;;;;;5093207;28;20131;-77
2022/12/05 05:28:02;;;;;;;14.40;9.77;;;6.00;99.90;;;;;;5092993;28;20062;-76
2022/12/05 05:30:28;;;;;;;15.50;9.23;;;5.90;99.90;;;;;;5093381;28;20044;-77
2022/12/05 05:32:53;;;;;;;14.87;9.50;;;5.90;99.90;;;;;;5093039;28;20542;-77
2022/12/05 05:35:20;;;;;;;14.70;8.93;;;5.90;99.90;;;;;;5075083;28;20056;-76
2022/12/05 05:37:46;;;;;;;15.18;9.63;;;5.90;99.90;;;;;;5093103;28;20048;-76
2022/12/05 05:40:13;;;;;;;17.97;10.00;;;5.90;99.90;;;;;;5092786;28;20101;-76
2022/12/05 05:42:46;;;;;;;15.90;9.52;;;5.90;99.90;;;;;;5092977;28;20552;-76
2022/12/05 05:45:14;;;;;;;14.73;9.73;;;5.90;99.90;;;;;;5092753;28;20040;-76
2022/12/05 05:47:40;;;;;;;13.65;9.55;;;5.90;99.90;;;;;;5091852;28;20052;-76
2022/12/05 05:50:07;;;;;;;17.25;10.30;;;5.90;99.90;;;;;;5092812;28;20400;-76
2022/12/05 05:52:35;;;;;;;15.13;8.90;;;5.90;99.90;;;;;;5092805;28;20040;-76
2022/12/05 05:55:01;;;;;;;16.08;9.35;;;5.90;99.90;;;;;;5092830;28;20506;-77
2022/12/05 05:57:27;;;;;;;14.70;9.18;;;5.90;99.90;;;;;;5092307;28;20048;-76
2022/12/05 05:59:52;;;;;;;13.80;9.30;;;5.90;99.90;;;;;;5091994;28;20063;-77
2022/12/05 06:02:18;;;;;;;16.80;9.70;;;6.00;99.90;;;;;;5092614;28;20087;-76
2022/12/05 06:04:44;;;;;;;15.73;9.67;;;6.00;99.90;;;;;;5092783;28;20079;-77
2022/12/05 06:07:09;;;;;;;14.27;9.43;;;6.00;99.90;;;;;;5092548;28;20400;-76
2022/12/05 06:09:35;;;;;;;16.13;9.30;;;6.00;99.90;;;;;;5092863;28;20496;-76
2022/12/05 06:12:02;;;;;;;15.90;9.80;;;5.90;99.90;;;;;;5092786;28;20472;-76
2022/12/05 06:14:27;;;;;;;16.33;10.32;;;5.90;99.90;;;;;;5092420;28;20140;-76
2022/12/05 06:16:53;;;;;;;17.87;9.77;;;5.90;99.90;;;;;;5091495;28;20079;-77
2022/12/05 06:19:19;;;;;;;15.97;9.07;;;5.90;99.90;;;;;;5092449;28;20105;-76
2022/12/05 06:21:47;;;;;;;15.87;9.60;;;5.90;99.90;;;;;;5092675;28;20122;-77
2022/12/05 06:24:12;;;;;;;17.23;9.45;;;6.00;99.90;;;;;;5092424;28;20129;-76
2022/12/05 06:26:38;;;;;;;13.87;9.50;;;5.90;99.90;;;;;;5091879;28;20084;-76
2022/12/05 06:29:04;;;;;;;15.13;9.90;;;5.90;99.90;;;;;;5091423;28;20044;-76
2022/12/05 06:31:32;;;;;;;15.70;8.87;;;6.00;99.90;;;;;;5091132;28;20060;-76
2022/12/05 06:34:02;;;;;;;14.35;9.38;;;5.90;99.90;;;;;;5092466;28;20044;-76
2022/12/05 06:36:29;;;;;;;16.80;9.48;;;5.90;99.90;;;;;;5094736;28;20559;-76
2022/12/05 06:38:58;;;;;;;15.43;8.90;;;5.90;99.90;;;;;;5096167;28;20105;-76
2022/12/05 06:41:26;;;;;;;15.93;9.90;;;5.90;99.90;;;;;;5094979;28;20048;-76
2022/12/05 06:43:57;;;;;;;14.18;9.27;;;5.90;99.90;;;;;;5096064;28;20399;-76
2022/12/05 06:46:25;;;;;;;13.23;9.18;;;5.90;99.90;;;;;;5095763;28;20044;-76
2022/12/05 06:48:55;;;;;;;13.48;9.02;;;5.90;99.90;;;;;;5096042;28;20044;-76
2022/12/05 06:51:22;;;;;;;14.20;9.68;;;5.90;99.90;;;;;;5094460;28;20101;-76
2022/12/05 06:53:48;;;;;;;12.63;8.73;;;5.90;99.90;;;;;;5095768;28;20503;-76
2022/12/05 06:56:18;;;;;;;14.97;9.13;;;5.90;99.90;;;;;;5095712;28;20090;-76
2022/12/05 06:58:47;;;;;;;18.15;9.52;;;5.90;99.90;;;;;;5094567;28;20318;-77
2022/12/05 07:04:02;;;;;;;11.38;7.70;;;5.90;99.90;;;;;;5095039;28;20407;-77
2022/12/05 07:06:28;;;;;;;14.55;8.70;;;5.90;99.90;;;;;;5094253;28;20048;-78
2022/12/05 07:08:54;;;;;;;17.23;10.47;;;6.00;99.90;;;;;;5095543;28;20040;-78
2022/12/05 07:11:20;;;;;;;14.73;8.40;;;6.00;99.90;;;;;;5095326;28;20047;-77
2022/12/05 07:13:46;;;;;;;14.83;9.13;;;6.00;99.90;;;;;;5094662;28;20728;-76
2022/12/05 07:16:12;;;;;;;16.73;9.10;;;6.00;99.90;;;;;;5095452;28;20039;-77
2022/12/05 07:18:38;;;;;;;14.10;8.85;;;6.00;99.90;;;;;;5094200;28;20047;-77
2022/12/05 07:21:06;;;;;;;16.63;9.52;;;5.90;99.90;;;;;;5095419;28;20404;-74
2022/12/05 07:23:32;;;;;;;16.73;9.38;;;6.00;99.90;;;;;;5095067;28;20054;-76
2022/12/05 07:25:58;;;;;;;15.67;9.30;;;6.00;99.90;;;;;;5095271;28;20454;-78
2022/12/05 07:28:24;;;;;;;14.90;9.33;;;6.00;99.90;;;;;;5095024;28;20499;-79
2022/12/05 07:31:02;;;;;;;18.50;9.30;;;6.00;99.90;;;;;;5095114;28;20044;-79
2022/12/05 07:33:28;;;;;;;15.52;8.75;;;6.00;99.90;;;;;;5095027;28;20036;-79
2022/12/05 07:35:59;;;;;;;15.55;8.38;;;6.00;99.90;;;;;;5095386;28;20055;-78
2022/12/05 07:38:25;;;;;;;17.42;9.30;;;6.00;99.90;;;;;;5094848;28;20126;-76
2022/12/05 07:40:50;;;;;;;16.17;9.60;;;6.10;99.90;;;;;;5093796;28;20118;-78
2022/12/05 07:43:16;;;;;;;18.60;10.37;;;6.00;99.90;;;;;;5077121;28;20541;-76
2022/12/05 07:45:42;;;;;;;20.63;10.77;;;6.00;99.90;;;;;;5094670;28;20058;-82
2022/12/05 07:48:07;;;;;;;16.47;9.77;;;6.00;99.90;;;;;;5094983;28;20047;-76
2022/12/05 07:50:33;;;;;;;21.40;10.97;;;6.00;99.90;;;;;;5093481;28;20048;-75
2022/12/05 07:52:59;;;;;;;19.00;10.80;;;6.00;99.90;;;;;;5093663;28;20080;-75
2022/12/05 07:55:24;;;;;;;18.37;9.87;;;6.00;99.90;;;;;;5091940;28;20055;-75
2022/12/05 07:57:50;;;;;;;22.40;10.97;;;6.10;99.90;;;;;;5093322;28;20070;-75
2022/12/05 08:00:16;;;;;;;17.73;10.63;;;6.10;99.90;;;;;;5094180;28;20056;-75
2022/12/05 08:02:42;;;;;;;21.92;10.57;;;6.10;99.90;;;;;;5093906;28;20135;-75
2022/12/05 08:05:08;;;;;;;18.37;9.27;;;6.10;99.90;;;;;;5094357;28;20166;-75
2022/12/05 08:07:33;;;;;;;16.47;8.47;;;6.10;99.90;;;;;;5094117;28;20048;-75
2022/12/05 08:09:59;;;;;;;19.63;8.97;;;6.10;99.90;;;;;;5094842;28;20051;-75
2022/12/05 08:12:25;;;;;;;17.80;8.63;;;6.20;99.90;;;;;;5093464;28;20430;-75
2022/12/05 08:14:50;;;;;;;19.00;9.53;;;6.20;99.90;;;;;;5094376;28;20047;-75
2022/12/05 08:17:16;;;;;;;18.47;9.77;;;6.20;99.90;;;;;;5093360;28;20129;-75
2022/12/05 08:19:42;;;;;;;17.48;8.90;;;6.10;99.90;;;;;;5094057;28;20044;-75
2022/12/05 08:22:08;;;;;;;19.10;8.40;;;6.10;99.90;;;;;;5094503;28;20044;-75
2022/12/05 08:24:34;;;;;;;19.67;8.60;;;6.10;99.90;;;;;;5093917;28;20442;-76
2022/12/05 08:26:59;;;;;;;17.37;8.87;;;6.20;99.90;;;;;;5093177;28;20084;-75
2022/12/05 08:29:25;;;;;;;16.93;8.87;;;6.20;99.90;;;;;;5093925;28;20048;-75
2022/12/05 08:31:51;;;;;;;18.37;8.37;;;6.10;99.90;;;;;;5092892;28;20097;-75
2022/12/05 08:34:19;;;;;;;23.53;8.60;;;6.20;99.90;;;;;;5093978;28;20050;-75
2022/12/05 08:36:44;;;;;;;16.50;8.55;;;6.20;99.90;;;;;;5093768;28;20048;-75
2022/12/05 08:39:14;;;;;;;20.97;9.53;;;6.10;99.90;;;;;;5094181;28;20051;-76
2022/12/05 08:41:41;;;;;;;13.88;7.90;;;6.20;99.90;;;;;;5093796;28;20388;-76
2022/12/05 08:44:09;;;;;;;18.98;8.30;;;6.20;99.90;;;;;;5093877;28;20044;-75
2022/12/05 08:46:37;;;;;;;17.80;9.02;;;6.20;99.90;;;;;;5092594;28;20048;-76
2022/12/05 08:49:03;;;;;;;16.95;7.80;;;6.20;99.90;;;;;;5093753;28;20044;-76
2022/12/05 08:51:29;;;;;;;17.85;7.85;;;6.20;99.90;;;;;;5093586;28;20051;-76
2022/12/05 08:53:55;;;;;;;17.53;8.50;;;6.20;99.90;;;;;;5093702;28;20039;-75
2022/12/05 08:56:21;;;;;;;14.50;7.60;;;6.20;99.90;;;;;;5092216;28;20519;-75
2022/12/05 08:58:47;;;;;;;20.45;8.77;;;6.20;99.90;;;;;;5092823;28;20120;-75
2022/12/05 09:01:16;;;;;;;24.63;8.83;;;6.30;99.90;;;;;;5093605;28;20472;-75
2022/12/05 09:03:43;;;;;;;19.75;8.60;;;6.20;99.90;;;;;;5093416;28;20040;-75
2022/12/05 09:06:17;;;;;;;17.83;8.82;;;6.20;99.90;;;;;;5093594;28;20067;-75
2022/12/05 09:08:43;;;;;;;23.60;9.60;;;6.20;99.90;;;;;;5092409;28;20391;-75
2022/12/05 09:11:14;;;;;;;15.00;8.57;;;6.20;99.90;;;;;;5093507;28;20047;-75
2022/12/05 09:13:40;;;;;;;23.42;9.57;;;6.30;99.90;;;;;;5092183;28;20044;-75
2022/12/05 09:16:15;;;;;;;20.92;9.15;;;6.20;99.90;;;;;;5093447;28;20044;-75
2022/12/05 09:18:42;;;;;;;12.55;6.60;;;6.30;99.90;;;;;;5093271;28;20464;-75
2022/12/05 09:21:10;;;;;;;22.08;8.85;;;6.40;99.90;;;;;;5093411;28;20095;-75
2022/12/05 09:23:36;;;;;;;20.50;9.30;;;6.30;99.90;;;;;;5092821;28;20578;-76
2022/12/05 09:26:04;;;;;;;19.35;8.75;;;6.30;99.90;;;;;;5093349;28;20044;-75
2022/12/05 09:28:30;;;;;;;19.40;8.13;;;6.30;99.90;;;;;;5093200;28;20047;-75
2022/12/05 09:30:57;;;;;;;16.65;9.20;;;6.40;99.90;;;;;;5093630;28;20369;-75
2022/12/05 09:33:24;;;;;;;14.70;7.43;;;6.40;99.90;;;;;;5093103;28;20054;-75
2022/12/05 09:35:49;;;;;;;18.40;9.23;;;6.30;99.90;;;;;;5092959;28;20050;-75
2022/12/05 09:38:15;;;;;;;21.00;9.30;;;6.30;99.90;;;;;;5093442;28;20127;-75
2022/12/05 09:40:42;;;;;;;20.57;9.13;;;6.40;99.90;;;;;;5091564;28;20047;-75
2022/12/05 09:43:23;;;;;;;17.20;9.40;;;6.40;99.90;;;;;;5092929;28;20484;-75
2022/12/05 09:45:59;;;;;;;20.63;9.35;;;6.40;99.90;;;;;;5092962;28;20507;-75
2022/12/05 09:48:25;;;;;;;19.95;8.73;;;6.40;99.90;;;;;;5093267;28;20051;-74
2022/12/05 09:51:01;;;;;;;18.97;9.27;;;6.40;99.90;;;;;;5092855;28;20048;-75
2022/12/05 09:53:34;;;;;;;22.42;9.55;;;6.40;99.90;;;;;;5092911;28;20040;-75
2022/12/05 09:56:02;;;;;;;18.17;10.73;;;6.30;99.90;;;;;;5093165;28;20186;-75
2022/12/05 09:58:52;;;;;;;20.92;9.10;;;6.30;99.90;;;;;;5093124;28;20052;-75
2022/12/05 10:01:40;;;;;;;20.15;9.20;;;6.30;99.90;;;;;;5093093;28;20048;-75
2022/12/05 10:04:39;;;;;;;17.70;9.32;;;6.30;99.90;;;;;;5092962;28;20097;-75
2022/12/05 10:07:28;;;;;;;17.58;9.35;;;6.30;99.90;;;;;;5093135;28;20105;-75
2022/12/05 10:10:12;;;;;;;19.92;9.75;;;6.30;99.90;;;;;;5096737;28;20131;-75
2022/12/05 10:12:59;;;;;;;15.55;8.55;;;6.30;99.90;;;;;;5096392;28;20575;-75
2022/12/05 10:15:33;;;;;;;21.13;9.68;;;6.30;99.90;;;;;;5096762;28;20105;-75
2022/12/05 10:18:04;;;;;;;19.23;10.15;;;6.30;99.90;;;;;;5095177;28;20044;-75
2022/12/05 10:20:51;;;;;;;15.05;8.38;;;6.30;99.90;;;;;;5096402;28;20496;-75
2022/12/05 10:23:16;;;;;;;17.05;8.90;;;6.30;99.90;;;;;;5096821;28;20089;-75
2022/12/05 10:25:42;;;;;;;15.67;8.90;;;6.30;99.90;;;;;;5096374;28;20052;-75
2022/12/05 10:28:23;;;;;;;16.77;9.25;;;6.30;99.90;;;;;;5096354;28;20564;-75
2022/12/05 10:31:00;;;;;;;18.23;9.35;;;6.30;99.90;;;;;;5096346;28;20048;-75
2022/12/05 10:33:32;;;;;;;20.45;9.25;;;6.30;99.90;;;;;;5095283;28;20093;-75
2022/12/05 10:35:58;;;;;;;24.38;9.70;;;6.30;99.90;;;;;;5096223;28;20109;-75
2022/12/05 10:38:31;;;;;;;20.63;9.80;;;6.30;99.90;;;;;;5096337;28;20553;-75
2022/12/05 10:41:02;;;;;;;18.42;9.07;;;6.30;99.90;;;;;;5096003;28;20052;-75
2022/12/05 10:43:30;;;;;;;17.95;9.27;;;6.20;99.90;;;;;;5096225;28;20130;-75
2022/12/05 10:45:56;;;;;;;21.52;11.05;;;6.30;99.90;;;;;;5095863;28;20051;-75
2022/12/05 10:48:23;;;;;;;19.92;9.82;;;6.30;99.90;;;;;;5096044;28;20098;-75
2022/12/05 10:50:52;;;;;;;21.25;11.27;;;6.30;99.90;;;;;;5095900;28;20051;-75
2022/12/05 10:53:25;;;;;;;18.95;9.27;;;6.30;99.90;;;;;;5096121;28;20076;-75
2022/12/05 10:55:52;;;;;;;24.13;9.82;;;6.20;99.90;;;;;;5095553;28;20377;-75
2022/12/05 10:58:22;;;;;;;20.42;10.30;;;6.30;99.90;;;;;;5096009;28;20555;-75
2022/12/05 11:00:51;;;;;;;18.65;9.68;;;6.20;99.90;;;;;;5095746;28;20446;-76
2022/12/05 11:03:25;;;;;;;19.45;10.02;;;6.20;99.90;;;;;;5094909;28;20081;-75
2022/12/05 11:05:57;;;;;;;20.23;11.15;;;6.20;99.90;;;;;;5095718;28;20044;-75
2022/12/05 11:08:30;;;;;;;18.38;10.05;;;6.10;99.90;;;;;;5095789;28;20048;-75
2022/12/05 11:11:21;;;;;;;26.17;11.05;;;6.10;99.90;;;;;;5094331;28;20071;-75
2022/12/05 11:14:01;;;;;;;16.27;9.25;;;6.10;99.90;;;;;;5094943;28;20066;-75
2022/12/05 11:16:34;;;;;;;23.08;9.95;;;6.10;99.90;;;;;;5095653;28;20040;-75
2022/12/05 11:19:21;;;;;;;19.10;8.68;;;6.10;99.90;;;;;;5095324;28;20059;-75
2022/12/05 11:21:47;;;;;;;21.17;9.35;;;6.10;99.90;;;;;;5094985;28;20479;-75
2022/12/05 11:24:30;;;;;;;18.85;9.55;;;6.10;99.90;;;;;;5095413;28;20048;-75
2022/12/05 11:26:58;;;;;;;22.65;10.10;;;6.10;99.90;;;;;;5095238;28;20088;-75
2022/12/05 11:29:38;;;;;;;16.25;9.25;;;6.10;99.90;;;;;;5095523;28;20044;-75
2022/12/05 11:32:15;;;;;;;22.65;9.07;;;6.10;99.90;;;;;;5095116;28;20123;-75
2022/12/05 11:34:56;;;;;;;20.80;9.52;;;6.10;99.90;;;;;;5095222;28;20044;-75
2022/12/05 11:37:26;;;;;;;19.75;9.45;;;6.10;99.90;;;;;;5095193;28;20056;-75
2022/12/05 11:39:52;;;;;;;14.65;8.70;;;6.10;99.90;;;;;;5094593;28;20048;-75
2022/12/05 11:42:39;;;;;;;22.73;9.47;;;6.10;99.90;;;;;;5095028;28;20044;-75
2022/12/05 11:45:37;;;;;;;18.13;9.65;;;6.10;99.90;;;;;;5093819;28;20373;-75
2022/12/05 11:48:19;;;;;;;17.40;8.32;;;6.00;99.90;;;;;;5094836;28;20494;-75
2022/12/05 11:51:02;;;;;;;17.48;8.30;;;6.10;99.90;;;;;;5094824;28;20044;-76
2022/12/05 11:53:49;;;;;;;21.30;9.27;;;6.10;99.90;;;;;;5094889;28;20087;-75
2022/12/05 11:56:37;;;;;;;19.60;9.82;;;6.10;99.90;;;;;;5094610;28;20056;-75
2022/12/05 11:59:43;;;;;;;18.88;9.15;;;6.00;99.90;;;;;;5094227;28;20472;-75
2022/12/05 12:02:15;;;;;;;14.70;7.97;;;6.00;99.90;;;;;;5094935;28;20041;-75
2022/12/05 12:04:47;;;;;;;20.08;8.50;;;6.00;99.90;;;;;;5093692;28;20060;-74
2022/12/05 12:07:24;;;;;;;19.23;9.43;;;6.00;99.90;;;;;;5094800;28;20044;-75
2022/12/05 12:10:01;;;;;;;17.35;8.15;;;6.00;99.90;;;;;;5094497;28;20063;-75
2022/12/05 12:12:49;;;;;;;19.13;8.50;;;6.00;99.90;;;;;;5094612;28;20047;-75
2022/12/05 12:15:39;;;;;;;16.73;7.82;;;6.00;99.90;;;;;;5094361;28;20515;-74
2022/12/05 12:18:20;;;;;;;16.58;8.38;;;6.00;99.90;;;;;;5094167;28;20059;-75
2022/12/05 12:21:03;;;;;;;15.95;7.50;;;6.00;99.90;;;;;;5094457;28;20048;-75
2022/12/05 12:23:38;;;;;;;15.20;7.00;;;6.00;99.90;;;;;;5094442;28;20048;-75
2022/12/05 12:26:22;;;;;;;20.25;8.23;;;6.00;99.90;;;;;;5076292;28;20060;-75
2022/12/05 12:28:58;;;;;;;17.73;6.90;;;6.00;99.90;;;;;;5094028;28;20048;-75
2022/12/05 12:31:33;;;;;;;16.58;6.97;;;6.00;99.90;;;;;;5094169;28;20127;-74
2022/12/05 12:34:51;;;;;;;17.05;7.65;;;6.00;99.90;;;;;;5093058;28;20079;-74
2022/12/05 12:37:50;;;;;;;16.90;7.07;;;6.00;99.90;;;;;;5094139;28;20044;-74
2022/12/05 12:40:45;;;;;;;14.60;6.30;;;6.00;99.90;;;;;;5091229;28;20056;-74
2022/12/05 12:43:31;;;;;;;15.05;6.57;;;6.00;99.90;;;;;;5093897;28;20083;-74
2022/12/05 12:46:36;;;;;;;13.25;6.10;;;6.00;99.90;;;;;;5093823;28;20056;-74
2022/12/05 12:49:26;;;;;;;15.82;5.50;;;6.00;99.90;;;;;;5093708;28;20052;-75
2022/12/05 12:52:18;;;;;;;11.68;5.20;;;6.00;99.90;;;;;;5093827;28;20056;-74
2022/12/05 12:55:02;;;;;;;11.90;4.82;;;6.00;99.90;;;;;;5092607;28;20043;-74
2022/12/05 12:57:55;;;;;;;12.70;5.50;;;6.00;99.90;;;;;;5094030;28;20051;-74
2022/12/05 13:00:59;;;;;;;9.05;5.20;;;6.00;99.90;;;;;;5093655;28;20048;-74
2022/12/05 13:04:01;;;;;;;8.88;4.22;;;6.00;99.90;;;;;;5092487;28;20052;-74
2022/12/05 13:06:32;;;;;;;6.88;3.15;;;6.00;99.90;;;;;;5093423;28;20551;-74
2022/12/05 13:09:03;;;;;;;9.15;3.60;;;6.00;99.90;;;;;;5093670;28;20054;-74
2022/12/05 13:11:36;;;;;;;7.70;3.35;;;6.00;99.90;;;;;;5093689;28;20048;-74
2022/12/05 13:14:08;;;;;;;10.38;3.63;;;6.00;99.90;;;;;;5093329;28;20109;-74
2022/12/05 13:16:38;;;;;;;10.40;3.97;;;6.00;99.90;;;;;;5093720;28;20048;-74
2022/12/05 13:19:05;;;;;;;7.97;3.55;;;6.00;99.90;;;;;;5093332;28;20040;-74